createdAt,value
2023-05-10T00:01:50.040Z,97431.00
2023-05-10T00:04:28.330Z,97426.00
2023-05-10T00:07:04.283Z,97437.00
2023-05-10T00:09:40.986Z,97439.00
2023-05-10T00:12:16.863Z,97435.00
2023-05-10T00:14:52.704Z,97437.00
2023-05-10T00:17:28.668Z,97433.00
2023-05-10T00:20:06.064Z,97433.00
2023-05-10T00:22:41.923Z,97443.00
2023-05-10T00:25:17.817Z,97430.00
2023-05-10T00:27:56.079Z,97435.00
2023-05-10T00:30:31.942Z,97434.00
2023-05-10T00:33:07.934Z,97433.00
2023-05-10T00:35:43.819Z,97425.00
2023-05-10T00:38:19.692Z,97440.00
2023-05-10T00:40:55.785Z,97429.00
2023-05-10T00:43:37.673Z,97424.00
2023-05-10T00:46:15.534Z,97441.00
2023-05-10T00:48:51.624Z,97441.00
2023-05-10T00:51:27.489Z,97443.00
2023-05-10T00:54:03.959Z,97452.00
2023-05-10T00:56:40.614Z,97446.00
2023-05-10T00:59:18.087Z,97454.00
2023-05-10T01:01:54.649Z,97468.00
2023-05-10T01:04:31.550Z,97465.00
2023-05-10T01:07:07.657Z,97462.00
2023-05-10T01:09:43.534Z,97458.00
2023-05-10T01:12:21.179Z,97463.00
2023-05-10T01:14:58.948Z,97459.00
2023-05-10T01:17:36.864Z,97448.00
2023-05-10T01:20:13.900Z,97463.00
2023-05-10T01:23:32.131Z,97471.00
2023-05-10T01:26:34.355Z,97471.00
2023-05-10T01:29:22.637Z,97467.00
2023-05-10T01:32:31.951Z,97470.00
2023-05-10T01:35:18.494Z,97464.00
2023-05-10T01:38:10.588Z,97473.00
2023-05-10T01:41:06.849Z,97480.00
2023-05-10T01:44:33.348Z,97478.00
2023-05-10T01:47:15.619Z,97478.00
2023-05-10T01:49:55.833Z,97472.00
2023-05-10T01:52:38.898Z,97493.00
2023-05-10T01:55:17.657Z,97484.00
2023-05-10T01:58:03.997Z,97492.00
2023-05-10T02:00:44.538Z,97491.00
2023-05-10T02:03:25.366Z,97496.00
2023-05-10T02:06:01.444Z,97501.00
2023-05-10T02:08:38.199Z,97502.00
2023-05-10T02:11:15.311Z,97495.00
2023-05-10T02:13:52.741Z,97493.00
2023-05-10T02:16:31.833Z,97490.00
2023-05-10T02:19:11.493Z,97490.00
2023-05-10T02:21:48.314Z,97491.00
2023-05-10T02:24:26.308Z,97495.00
2023-05-10T02:27:04.646Z,97511.00
2023-05-10T02:29:42.333Z,97505.00
2023-05-10T02:32:19.845Z,97505.00
2023-05-10T02:34:56.633Z,97505.00
2023-05-10T02:37:34.187Z,97518.00
2023-05-10T02:40:12.085Z,97520.00
2023-05-10T02:42:49.884Z,97524.00
2023-05-10T02:45:30.298Z,97532.00
2023-05-10T02:48:06.477Z,97536.00
2023-05-10T02:50:45.972Z,97526.00
2023-05-10T02:53:34.722Z,97522.00
2023-05-10T02:56:26.823Z,97519.00
2023-05-10T02:59:03.227Z,97514.00
2023-05-10T03:01:39.478Z,97521.00
2023-05-10T03:04:16.529Z,97519.00
2023-05-10T03:06:52.760Z,97525.00
2023-05-10T03:09:29.061Z,97525.00
2023-05-10T03:12:39.976Z,97525.00
2023-05-10T03:15:53.154Z,97533.00
2023-05-10T03:19:10.496Z,97529.00
2023-05-10T03:21:52.363Z,97538.00
2023-05-10T03:24:29.799Z,97542.00
2023-05-10T03:27:09.002Z,97532.00
2023-05-10T03:29:47.480Z,97543.00
2023-05-10T03:32:24.171Z,97537.00
2023-05-10T03:35:00.246Z,97535.00
2023-05-10T03:37:36.593Z,97531.00
2023-05-10T03:40:12.994Z,97538.00
2023-05-10T03:42:51.472Z,97536.00
2023-05-10T03:45:28.099Z,97549.00
2023-05-10T03:48:04.612Z,97543.00
2023-05-10T03:50:41.069Z,97542.00
2023-05-10T03:53:17.301Z,97539.00
2023-05-10T03:55:53.403Z,97544.00
2023-05-10T03:58:29.454Z,97539.00
2023-05-10T04:01:06.521Z,97541.00
2023-05-10T04:03:42.754Z,97547.00
2023-05-10T04:06:18.844Z,97547.00
2023-05-10T04:08:54.813Z,97545.00
2023-05-10T04:11:31.431Z,97551.00
2023-05-10T04:14:07.473Z,97556.00
2023-05-10T04:16:43.663Z,97553.00
2023-05-10T04:19:19.750Z,97541.00
2023-05-10T04:21:55.771Z,97553.00
2023-05-10T04:24:31.717Z,97548.00
2023-05-10T04:27:07.838Z,97548.00
2023-05-10T04:29:44.003Z,97548.00
2023-05-10T04:32:21.651Z,97551.00
2023-05-10T04:34:58.310Z,97551.00
2023-05-10T04:37:34.200Z,97548.00
2023-05-10T04:40:10.842Z,97554.00
2023-05-10T04:42:47.177Z,97558.00
2023-05-10T04:45:23.244Z,97560.00
2023-05-10T04:47:59.205Z,97569.00
2023-05-10T04:50:35.137Z,97564.00
2023-05-10T04:53:11.197Z,97564.00
2023-05-10T04:55:47.703Z,97566.00
2023-05-10T04:58:23.670Z,97572.00
2023-05-10T05:01:09.510Z,97571.00
2023-05-10T05:03:45.783Z,97581.00
2023-05-10T05:06:25.848Z,97577.00
2023-05-10T05:09:01.840Z,97579.00
2023-05-10T05:11:37.747Z,97580.00
2023-05-10T05:14:14.176Z,97581.00
2023-05-10T05:16:51.230Z,97573.00
2023-05-10T05:19:27.127Z,97584.00
2023-05-10T05:22:03.020Z,97588.00
2023-05-10T05:24:42.080Z,97590.00
2023-05-10T05:27:18.428Z,97590.00
2023-05-10T05:29:55.266Z,97600.00
2023-05-10T05:32:31.501Z,97599.00
2023-05-10T05:35:07.841Z,97600.00
2023-05-10T05:37:43.805Z,97590.00
2023-05-10T05:40:19.776Z,97598.00
2023-05-10T05:42:55.746Z,97609.00
2023-05-10T05:45:31.627Z,97603.00
2023-05-10T05:48:07.727Z,97610.00
2023-05-10T05:50:43.615Z,97605.00
2023-05-10T05:53:19.499Z,97609.00
2023-05-10T05:55:58.201Z,97604.00
2023-05-10T05:58:34.083Z,97609.00
2023-05-10T06:01:09.960Z,97604.00
2023-05-10T06:03:45.880Z,97609.00
2023-05-10T06:06:21.819Z,97605.00
2023-05-10T06:08:57.712Z,97610.00
2023-05-10T06:11:34.156Z,97615.00
2023-05-10T06:14:10.311Z,97622.00
2023-05-10T06:16:46.218Z,97612.00
2023-05-10T06:19:22.128Z,97623.00
2023-05-10T06:21:58.013Z,97633.00
2023-05-10T06:24:33.900Z,97625.00
2023-05-10T06:27:09.899Z,97631.00
2023-05-10T06:29:45.845Z,97622.00
2023-05-10T06:32:21.722Z,97627.00
2023-05-10T06:34:57.627Z,97634.00
2023-05-10T06:37:33.501Z,97632.00
2023-05-10T06:40:10.328Z,97633.00
2023-05-10T06:42:47.302Z,97629.00
2023-05-10T06:45:23.259Z,97640.00
2023-05-10T06:47:59.207Z,97638.00
2023-05-10T06:50:35.136Z,97646.00
2023-05-10T06:53:11.036Z,97634.00
2023-05-10T06:55:47.455Z,97642.00
2023-05-10T06:58:23.444Z,97640.00
2023-05-10T07:01:06.366Z,97652.00
2023-05-10T07:03:42.419Z,97648.00
2023-05-10T07:06:29.297Z,97644.00
2023-05-10T07:09:08.795Z,97639.00
2023-05-10T07:11:44.757Z,97650.00
2023-05-10T07:14:20.616Z,97643.00
2023-05-10T07:16:56.670Z,97646.00
2023-05-10T07:19:33.685Z,97649.00
2023-05-10T07:22:09.558Z,97646.00
2023-05-10T07:24:45.580Z,97656.00
2023-05-10T07:27:21.483Z,97654.00
2023-05-10T07:29:57.585Z,97655.00
2023-05-10T07:32:33.700Z,97654.00
2023-05-10T07:35:09.951Z,97660.00
2023-05-10T07:37:45.959Z,97664.00
2023-05-10T07:40:22.036Z,97658.00
2023-05-10T07:42:57.936Z,97670.00
2023-05-10T07:45:35.001Z,97672.00
2023-05-10T07:48:10.986Z,97663.00
2023-05-10T07:50:46.871Z,97667.00
2023-05-10T07:53:22.814Z,97674.00
2023-05-10T07:55:59.493Z,97674.00
2023-05-10T07:58:35.444Z,97674.00
2023-05-10T08:01:11.305Z,97676.00
2023-05-10T08:03:47.350Z,97679.00
2023-05-10T08:06:23.353Z,97667.00
2023-05-10T08:08:59.266Z,97682.00
2023-05-10T08:11:35.438Z,97676.00
2023-05-10T08:14:11.386Z,97673.00
2023-05-10T08:16:47.769Z,97683.00
2023-05-10T08:19:23.815Z,97686.00
2023-05-10T08:21:59.690Z,97677.00
2023-05-10T08:24:39.231Z,97685.00
2023-05-10T08:27:15.143Z,97689.00
2023-05-10T08:29:51.070Z,97683.00
2023-05-10T08:32:26.988Z,97692.00
2023-05-10T08:35:03.016Z,97693.00
2023-05-10T08:37:38.921Z,97693.00
2023-05-10T08:40:16.498Z,97699.00
2023-05-10T08:43:09.697Z,97690.00
2023-05-10T08:45:47.965Z,97693.00
2023-05-10T08:48:25.847Z,97690.00
2023-05-10T08:51:03.319Z,97690.00
2023-05-10T08:53:39.678Z,97688.00
2023-05-10T08:56:18.666Z,97698.00
2023-05-10T08:58:54.691Z,97702.00
2023-05-10T09:01:33.831Z,97693.00
2023-05-10T09:04:09.830Z,97697.00
2023-05-10T09:06:45.762Z,97698.00
2023-05-10T09:09:22.875Z,97701.00
2023-05-10T09:11:58.914Z,97704.00
2023-05-10T09:14:36.866Z,97702.00
2023-05-10T09:17:13.186Z,97711.00
2023-05-10T09:19:49.226Z,97707.00
2023-05-10T09:22:25.725Z,97715.00
2023-05-10T09:25:14.665Z,97709.00
2023-05-10T09:27:50.905Z,97711.00
2023-05-10T09:30:31.797Z,97714.00
2023-05-10T09:33:07.977Z,97727.00
2023-05-10T09:35:43.941Z,97719.00
2023-05-10T09:38:19.996Z,97711.00
2023-05-10T09:40:56.313Z,97713.00
2023-05-10T09:43:39.285Z,97715.00
2023-05-10T09:46:16.998Z,97716.00
2023-05-10T09:48:53.055Z,97711.00
2023-05-10T09:51:28.944Z,97717.00
2023-05-10T09:54:16.986Z,97724.00
2023-05-10T09:56:52.860Z,97728.00
2023-05-10T09:59:30.470Z,97725.00
2023-05-10T10:02:06.643Z,97728.00
2023-05-10T10:04:42.921Z,97730.00
2023-05-10T10:07:25.795Z,97728.00
2023-05-10T10:10:02.051Z,97736.00
2023-05-10T10:12:38.729Z,97739.00
2023-05-10T10:15:16.580Z,97729.00
2023-05-10T10:17:55.043Z,97727.00
2023-05-10T10:20:31.163Z,97728.00
2023-05-10T10:23:07.078Z,97720.00
2023-05-10T10:25:45.335Z,97720.00
2023-05-10T10:28:28.483Z,97732.00
2023-05-10T10:31:37.919Z,97723.00
2023-05-10T10:34:34.215Z,97716.00
2023-05-10T10:37:10.101Z,97717.00
2023-05-10T10:39:46.034Z,97727.00
2023-05-10T10:42:48.107Z,97733.00
2023-05-10T10:45:25.770Z,97733.00
2023-05-10T10:48:23.535Z,97733.00
2023-05-10T10:50:59.486Z,97730.00
2023-05-10T10:53:35.431Z,97724.00
2023-05-10T10:56:16.286Z,97723.00
2023-05-10T10:58:54.482Z,97730.00
2023-05-10T11:01:36.472Z,97713.00
2023-05-10T11:04:12.462Z,97738.00
2023-05-10T11:06:48.461Z,97726.00
2023-05-10T11:09:26.141Z,97729.00
2023-05-10T11:12:09.957Z,97735.00
2023-05-10T11:14:51.837Z,97742.00
2023-05-10T11:17:31.486Z,97743.00
2023-05-10T11:20:11.794Z,97737.00
2023-05-10T11:22:52.925Z,97726.00
2023-05-10T11:25:29.194Z,97731.00
2023-05-10T11:28:06.328Z,97732.00
2023-05-10T11:30:44.987Z,97725.00
2023-05-10T11:33:21.239Z,97721.00
2023-05-10T11:35:57.204Z,97727.00
2023-05-10T11:38:34.265Z,97740.00
2023-05-10T11:41:12.427Z,97732.00
2023-05-10T11:43:50.892Z,97741.00
2023-05-10T11:46:29.514Z,97742.00
2023-05-10T11:49:08.753Z,97750.00
2023-05-10T11:51:44.772Z,97742.00
2023-05-10T11:54:20.701Z,97750.00
2023-05-10T11:56:56.570Z,97741.00
2023-05-10T11:59:32.507Z,97745.00
2023-05-10T12:02:08.695Z,97748.00
2023-05-10T12:04:44.772Z,97756.00
2023-05-10T12:07:20.807Z,97755.00
2023-05-10T12:10:18.466Z,97756.00
2023-05-10T12:12:54.770Z,97765.00
2023-05-10T12:15:30.660Z,97766.00
2023-05-10T12:18:06.882Z,97772.00
2023-05-10T12:20:43.474Z,97775.00
2023-05-10T12:23:21.171Z,97768.00
2023-05-10T12:26:05.206Z,97780.00
2023-05-10T12:28:41.117Z,97783.00
2023-05-10T12:31:17.203Z,97781.00
2023-05-10T12:33:53.434Z,97780.00
2023-05-10T12:36:29.445Z,97782.00
2023-05-10T12:39:05.897Z,97780.00
2023-05-10T12:41:43.636Z,97784.00
2023-05-10T12:44:19.932Z,97782.00
2023-05-10T12:46:55.894Z,97776.00
2023-05-10T12:49:31.943Z,97785.00
2023-05-10T12:52:07.968Z,97785.00
2023-05-10T12:54:44.425Z,97783.00
2023-05-10T12:57:22.082Z,97790.00
2023-05-10T12:59:58.265Z,97796.00
2023-05-10T13:02:34.332Z,97800.00
2023-05-10T13:05:12.218Z,97783.00
2023-05-10T13:07:48.282Z,97789.00
2023-05-10T13:10:24.865Z,97787.00
2023-05-10T13:13:01.020Z,97789.00
2023-05-10T13:15:37.086Z,97785.00
2023-05-10T13:18:13.203Z,97781.00
2023-05-10T13:20:50.553Z,97779.00
2023-05-10T13:23:26.561Z,97778.00
2023-05-10T13:26:02.586Z,97778.00
2023-05-10T13:28:39.805Z,97778.00
2023-05-10T13:31:16.007Z,97774.00
2023-05-10T13:33:52.250Z,97782.00
2023-05-10T13:36:28.493Z,97782.00
2023-05-10T13:39:06.232Z,97786.00
2023-05-10T13:41:42.319Z,97782.00
2023-05-10T13:44:18.248Z,97765.00
2023-05-10T13:46:54.251Z,97768.00
2023-05-10T13:49:30.186Z,97755.00
2023-05-10T13:52:07.818Z,97766.00
2023-05-10T13:54:43.794Z,97758.00
2023-05-10T13:57:24.047Z,97762.00
2023-05-10T14:00:00.169Z,97767.00
2023-05-10T14:02:36.435Z,97767.00
2023-05-10T14:05:12.907Z,97766.00
2023-05-10T14:07:48.936Z,97766.00
2023-05-10T14:10:24.847Z,97766.00
2023-05-10T14:13:00.826Z,97761.00
2023-05-10T14:15:36.833Z,97757.00
2023-05-10T14:18:12.776Z,97750.00
2023-05-10T14:20:48.729Z,97746.00
2023-05-10T14:23:25.536Z,97748.00
2023-05-10T14:26:01.572Z,97750.00
2023-05-10T14:28:40.706Z,97755.00
2023-05-10T14:31:18.071Z,97745.00
2023-05-10T14:33:54.603Z,97749.00
2023-05-10T14:36:30.661Z,97762.00
2023-05-10T14:39:07.581Z,97755.00
2023-05-10T14:41:45.503Z,97759.00
2023-05-10T14:44:21.874Z,97754.00
2023-05-10T14:46:57.871Z,97768.00
2023-05-10T14:49:33.846Z,97755.00
2023-05-10T14:52:13.112Z,97757.00
2023-05-10T14:54:49.182Z,97755.00
2023-05-10T14:57:25.204Z,97756.00
2023-05-10T15:00:01.197Z,97760.00
2023-05-10T15:02:37.710Z,97753.00
2023-05-10T15:05:14.917Z,97753.00
2023-05-10T15:07:51.282Z,97756.00
2023-05-10T15:10:27.194Z,97749.00
2023-05-10T15:13:05.183Z,97759.00
2023-05-10T15:15:41.151Z,97776.00
2023-05-10T15:18:17.557Z,97752.00
2023-05-10T15:20:53.458Z,97748.00
2023-05-10T15:23:30.755Z,97746.00
2023-05-10T15:26:06.905Z,97747.00
2023-05-10T15:28:42.869Z,97739.00
2023-05-10T15:31:18.802Z,97765.00
2023-05-10T15:34:02.138Z,97752.00
2023-05-10T15:36:38.048Z,97766.00
2023-05-10T15:39:14.084Z,97762.00
2023-05-10T15:41:49.986Z,97761.00
2023-05-10T15:44:25.870Z,97762.00
2023-05-10T15:47:03.811Z,97758.00
2023-05-10T15:49:39.745Z,97768.00
2023-05-10T15:52:15.728Z,97769.00
2023-05-10T15:54:52.022Z,97769.00
2023-05-10T15:57:27.951Z,97766.00
2023-05-10T16:00:05.159Z,97771.00
2023-05-10T16:02:47.987Z,97762.00
2023-05-10T16:05:24.724Z,97771.00
2023-05-10T16:08:01.824Z,97765.00
2023-05-10T16:10:38.043Z,97768.00
2023-05-10T16:13:15.114Z,97774.00
2023-05-10T16:15:51.004Z,97774.00
2023-05-10T16:18:27.045Z,97782.00
2023-05-10T16:21:03.298Z,97784.00
2023-05-10T16:23:40.175Z,97780.00
2023-05-10T16:26:16.104Z,97787.00
2023-05-10T16:28:52.024Z,97781.00
2023-05-10T16:31:28.021Z,97785.00
2023-05-10T16:34:04.164Z,97779.00
2023-05-10T16:36:40.084Z,97781.00
2023-05-10T16:39:16.556Z,97780.00
2023-05-10T16:41:52.520Z,97784.00
2023-05-10T16:44:28.662Z,97782.00
2023-05-10T16:47:04.541Z,97781.00
2023-05-10T16:49:40.628Z,97776.00
2023-05-10T16:52:16.547Z,97790.00
2023-05-10T16:54:55.296Z,97782.00
2023-05-10T16:57:32.895Z,97792.00
2023-05-10T17:00:11.947Z,97785.00
2023-05-10T17:02:48.564Z,97791.00
2023-05-10T17:05:24.633Z,97796.00
2023-05-10T17:08:00.950Z,97788.00
2023-05-10T17:10:39.960Z,97790.00
2023-05-10T17:13:17.073Z,97792.00
2023-05-10T17:15:53.048Z,97803.00
2023-05-10T17:18:29.213Z,97807.00
2023-05-10T17:21:05.142Z,97801.00
2023-05-10T17:23:41.084Z,97799.00
2023-05-10T17:26:17.300Z,97805.00
2023-05-10T17:28:54.570Z,97800.00
2023-05-10T17:31:30.537Z,97793.00
2023-05-10T17:34:06.445Z,97796.00
2023-05-10T17:36:42.783Z,97803.00
2023-05-10T17:39:18.654Z,97792.00
2023-05-10T17:41:54.555Z,97805.00
2023-05-10T17:44:30.473Z,97805.00
2023-05-10T17:47:06.480Z,97802.00
2023-05-10T17:49:42.506Z,97812.00
2023-05-10T17:52:18.527Z,97812.00
2023-05-10T17:54:54.402Z,97808.00
2023-05-10T17:57:30.885Z,97812.00
2023-05-10T18:00:09.095Z,97816.00
2023-05-10T18:02:45.110Z,97822.00
2023-05-10T18:05:21.495Z,97818.00
2023-05-10T18:07:57.837Z,97826.00
2023-05-10T18:10:33.891Z,97818.00
2023-05-10T18:13:09.835Z,97818.00
2023-05-10T18:15:45.829Z,97820.00
2023-05-10T18:18:21.869Z,97822.00
2023-05-10T18:20:58.314Z,97828.00
2023-05-10T18:23:34.218Z,97836.00
2023-05-10T18:26:10.140Z,97831.00
2023-05-10T18:28:46.027Z,97826.00
2023-05-10T18:31:22.098Z,97833.00
2023-05-10T18:33:58.067Z,97834.00
2023-05-10T18:36:34.452Z,97839.00
2023-05-10T18:39:11.698Z,97834.00
2023-05-10T18:41:47.787Z,97837.00
2023-05-10T18:44:26.382Z,97835.00
2023-05-10T18:47:02.320Z,97832.00
2023-05-10T18:49:38.864Z,97834.00
2023-05-10T18:52:16.070Z,97843.00
2023-05-10T18:54:52.683Z,97830.00
2023-05-10T18:57:28.599Z,97838.00
2023-05-10T19:00:05.340Z,97850.00
2023-05-10T19:02:41.555Z,97848.00
2023-05-10T19:05:17.767Z,97847.00
2023-05-10T19:07:53.925Z,97848.00
2023-05-10T19:10:29.832Z,97846.00
2023-05-10T19:13:05.868Z,97848.00
2023-05-10T19:15:41.904Z,97847.00
2023-05-10T19:18:19.062Z,97852.00
2023-05-10T19:20:56.566Z,97856.00
2023-05-10T19:23:33.686Z,97849.00
2023-05-10T19:26:11.247Z,97855.00
2023-05-10T19:28:47.362Z,97860.00
2023-05-10T19:31:24.414Z,97858.00
2023-05-10T19:34:01.012Z,97857.00
2023-05-10T19:36:37.114Z,97854.00
2023-05-10T19:39:13.262Z,97853.00
2023-05-10T19:41:49.905Z,97861.00
2023-05-10T19:44:26.254Z,97863.00
2023-05-10T19:47:04.589Z,97860.00
2023-05-10T19:49:40.705Z,97863.00
2023-05-10T19:52:16.724Z,97867.00
2023-05-10T19:54:52.906Z,97863.00
2023-05-10T19:57:28.867Z,97865.00
2023-05-10T20:00:08.220Z,97859.00
2023-05-10T20:02:47.175Z,97866.00
2023-05-10T20:05:23.656Z,97863.00
2023-05-10T20:07:59.686Z,97869.00
2023-05-10T20:10:35.574Z,97860.00
2023-05-10T20:13:11.602Z,97860.00
2023-05-10T20:15:47.553Z,97863.00
2023-05-10T20:18:23.903Z,97861.00
2023-05-10T20:21:00.916Z,97869.00
2023-05-10T20:23:37.231Z,97863.00
2023-05-10T20:26:13.138Z,97859.00
2023-05-10T20:28:49.106Z,97872.00
2023-05-10T20:31:25.153Z,97863.00
2023-05-10T20:34:01.072Z,97859.00
2023-05-10T20:36:37.169Z,97858.00
2023-05-10T20:39:13.046Z,97856.00
2023-05-10T20:41:49.497Z,97861.00
2023-05-10T20:44:25.443Z,97860.00
2023-05-10T20:47:01.486Z,97865.00
2023-05-10T20:49:38.030Z,97857.00
2023-05-10T20:52:13.999Z,97865.00
2023-05-10T20:54:50.061Z,97863.00
2023-05-10T20:57:26.169Z,97865.00
2023-05-10T21:00:04.248Z,97856.00
2023-05-10T21:02:46.239Z,97853.00
2023-05-10T21:05:22.697Z,97854.00
2023-05-10T21:07:58.609Z,97859.00
2023-05-10T21:10:34.687Z,97857.00
2023-05-10T21:13:10.684Z,97863.00
2023-05-10T21:15:46.858Z,97852.00
2023-05-10T21:18:22.858Z,97862.00
2023-05-10T21:20:59.248Z,97868.00
2023-05-10T21:23:35.209Z,97860.00
2023-05-10T21:26:11.354Z,97851.00
2023-05-10T21:28:47.298Z,97859.00
2023-05-10T21:31:23.226Z,97860.00
2023-05-10T21:33:59.169Z,97860.00
2023-05-10T21:36:35.088Z,97849.00
2023-05-10T21:39:11.604Z,97861.00
2023-05-10T21:41:47.484Z,97855.00
2023-05-10T21:44:23.470Z,97862.00
2023-05-10T21:46:59.390Z,97854.00
2023-05-10T21:49:35.561Z,97854.00
2023-05-10T21:52:11.747Z,97855.00
2023-05-10T21:54:48.570Z,97857.00
2023-05-10T21:57:24.510Z,97859.00
2023-05-10T22:00:00.427Z,97854.00
2023-05-10T22:02:36.651Z,97861.00
2023-05-10T22:05:12.719Z,97857.00
2023-05-10T22:07:48.688Z,97859.00
2023-05-10T22:10:24.836Z,97858.00
2023-05-10T22:13:01.007Z,97860.00
2023-05-10T22:15:36.960Z,97862.00
2023-05-10T22:18:13.013Z,97867.00
2023-05-10T22:20:48.907Z,97868.00
2023-05-10T22:23:24.912Z,97867.00
2023-05-10T22:26:04.591Z,97864.00
2023-05-10T22:28:40.628Z,97860.00
2023-05-10T22:31:16.750Z,97864.00
2023-05-10T22:33:52.675Z,97864.00
2023-05-10T22:36:29.830Z,97856.00
2023-05-10T22:39:05.782Z,97860.00
2023-05-10T22:41:41.715Z,97860.00
2023-05-10T22:44:17.673Z,97858.00
2023-05-10T22:46:53.603Z,97852.00
2023-05-10T22:49:29.507Z,97858.00
2023-05-10T22:52:05.353Z,97858.00
2023-05-10T22:54:41.410Z,97854.00
2023-05-10T22:57:17.339Z,97853.00
2023-05-10T22:59:53.348Z,97854.00
2023-05-10T23:02:29.281Z,97854.00
2023-05-10T23:05:06.997Z,97855.00
2023-05-10T23:07:43.023Z,97860.00
2023-05-10T23:10:20.090Z,97865.00
2023-05-10T23:12:56.168Z,97865.00
2023-05-10T23:15:36.149Z,97859.00
2023-05-10T23:18:12.836Z,97865.00
2023-05-10T23:20:48.755Z,97863.00
2023-05-10T23:23:24.789Z,97867.00
2023-05-10T23:26:01.618Z,97871.00
2023-05-10T23:28:37.954Z,97872.00
2023-05-10T23:31:13.868Z,97874.00
2023-05-10T23:33:49.743Z,97877.00
2023-05-10T23:36:25.794Z,97869.00
2023-05-10T23:39:01.672Z,97875.00
2023-05-10T23:41:38.148Z,97870.00
2023-05-10T23:44:14.042Z,97867.00
2023-05-10T23:46:49.959Z,97865.00
2023-05-10T23:49:29.387Z,97866.00
2023-05-10T23:52:08.818Z,97866.00
2023-05-10T23:54:45.937Z,97865.00
2023-05-10T23:57:22.097Z,97861.00
2023-05-10T23:59:58.030Z,97865.00
